createdAt,value
2017-12-15T00:02:08.737Z,1.85
2017-12-15T00:04:36.293Z,2.30
2017-12-15T00:07:03.800Z,2.10
2017-12-15T00:09:31.514Z,2.05
2017-12-15T00:11:59.020Z,1.87
2017-12-15T00:14:26.622Z,2.10
2017-12-15T00:16:54.723Z,1.95
2017-12-15T00:19:22.261Z,1.80
2017-12-15T00:21:50.658Z,1.70
2017-12-15T00:24:18.201Z,1.50
2017-12-15T00:26:45.758Z,1.50
2017-12-15T00:29:13.265Z,1.90
2017-12-15T00:31:40.817Z,1.80
2017-12-15T00:34:08.325Z,1.58
2017-12-15T00:36:35.829Z,1.45
2017-12-15T00:39:03.398Z,1.48
2017-12-15T00:41:30.947Z,1.33
2017-12-15T00:43:58.474Z,1.85
2017-12-15T00:46:26.232Z,1.65
2017-12-15T00:48:53.738Z,1.33
2017-12-15T00:51:21.249Z,1.52
2017-12-15T00:53:49.331Z,1.12
2017-12-15T00:56:16.925Z,1.20
2017-12-15T00:58:44.426Z,1.67
2017-12-15T01:01:12.056Z,0.90
2017-12-15T01:03:39.561Z,1.27
2017-12-15T01:06:07.071Z,1.17
2017-12-15T01:08:34.880Z,1.08
2017-12-15T01:11:02.438Z,1.27
2017-12-15T01:13:29.947Z,1.02
2017-12-15T01:15:57.633Z,1.15
2017-12-15T01:18:25.138Z,1.30
2017-12-15T01:20:52.673Z,1.50
2017-12-15T01:23:20.232Z,1.00
2017-12-15T01:25:47.743Z,1.50
2017-12-15T01:28:15.250Z,1.55
2017-12-15T01:30:43.114Z,1.83
2017-12-15T01:33:10.623Z,1.83
2017-12-15T01:35:38.131Z,1.85
2017-12-15T01:38:05.894Z,1.75
2017-12-15T01:40:33.403Z,2.15
2017-12-15T01:43:00.994Z,1.65
2017-12-15T01:45:28.723Z,2.33
2017-12-15T01:47:56.226Z,1.80
2017-12-15T01:50:23.731Z,2.08
2017-12-15T01:52:51.358Z,2.50
2017-12-15T01:55:18.911Z,1.85
2017-12-15T01:57:46.410Z,2.03
2017-12-15T02:00:14.130Z,1.60
2017-12-15T02:02:41.635Z,2.30
2017-12-15T02:05:09.143Z,3.10
2017-12-15T02:07:36.718Z,1.98
2017-12-15T02:10:04.268Z,1.15
2017-12-15T02:12:31.824Z,0.80
2017-12-15T02:14:59.589Z,0.98
2017-12-15T02:17:27.094Z,0.70
2017-12-15T02:19:54.604Z,0.45
2017-12-15T02:22:22.178Z,0.90
2017-12-15T02:24:49.723Z,0.60
2017-12-15T02:27:17.231Z,0.60
2017-12-15T02:29:44.770Z,0.80
2017-12-15T02:32:12.297Z,0.70
2017-12-15T02:34:39.860Z,0.47
2017-12-15T02:37:07.517Z,0.43
2017-12-15T02:39:35.077Z,0.50
2017-12-15T02:42:02.587Z,0.60
2017-12-15T02:44:30.135Z,0.30
2017-12-15T02:46:57.652Z,0.30
2017-12-15T02:49:25.162Z,0.60
2017-12-15T02:51:52.975Z,0.60
2017-12-15T02:54:20.486Z,0.80
2017-12-15T02:56:48.005Z,0.60
2017-12-15T02:59:15.578Z,0.50
2017-12-15T03:01:43.155Z,0.40
2017-12-15T03:04:10.667Z,0.52
2017-12-15T03:06:38.246Z,0.55
2017-12-15T03:09:05.788Z,0.65
2017-12-15T03:11:33.346Z,0.40
2017-12-15T03:14:01.210Z,0.60
2017-12-15T03:16:29.180Z,0.85
2017-12-15T03:18:56.683Z,0.30
2017-12-15T03:21:24.235Z,0.30
2017-12-15T03:23:51.754Z,0.40
2017-12-15T03:26:19.258Z,0.30
2017-12-15T03:28:46.975Z,0.30
2017-12-15T03:31:14.479Z,0.30
2017-12-15T03:33:42.095Z,0.40
2017-12-15T03:36:09.662Z,0.30
2017-12-15T03:38:37.166Z,0.65
2017-12-15T03:41:04.680Z,0.40
2017-12-15T03:43:32.431Z,0.30
2017-12-15T03:45:59.935Z,0.30
2017-12-15T03:48:27.449Z,0.30
2017-12-15T03:50:55.085Z,0.30
2017-12-15T03:53:22.589Z,0.32
2017-12-15T03:55:50.126Z,0.30
2017-12-15T03:58:18.030Z,0.40
2017-12-15T04:00:45.532Z,0.30
2017-12-15T04:03:13.041Z,0.30
2017-12-15T04:05:40.590Z,0.30
2017-12-15T04:08:08.098Z,0.30
2017-12-15T04:10:35.992Z,0.40
2017-12-15T04:13:03.759Z,0.30
2017-12-15T04:15:31.314Z,0.45
2017-12-15T04:17:58.874Z,0.50
2017-12-15T04:20:26.613Z,0.37
2017-12-15T04:22:54.130Z,0.40
2017-12-15T04:25:21.634Z,0.40
2017-12-15T04:27:49.189Z,0.30
2017-12-15T04:30:16.713Z,0.35
2017-12-15T04:32:44.219Z,0.40
2017-12-15T04:35:11.991Z,0.35
2017-12-15T04:37:39.551Z,0.30
2017-12-15T04:40:07.109Z,0.50
2017-12-15T04:42:34.823Z,0.40
2017-12-15T04:45:02.945Z,0.30
2017-12-15T04:47:30.447Z,0.30
2017-12-15T04:49:58.471Z,0.50
2017-12-15T04:52:25.982Z,0.60
2017-12-15T04:54:53.487Z,0.43
2017-12-15T04:57:21.150Z,0.52
2017-12-15T04:59:48.709Z,0.50
2017-12-15T05:02:16.269Z,0.68
2017-12-15T05:04:43.827Z,0.55
2017-12-15T05:07:11.333Z,0.62
2017-12-15T05:09:38.842Z,0.65
2017-12-15T05:12:06.449Z,0.80
2017-12-15T05:14:33.961Z,0.60
2017-12-15T05:17:01.462Z,0.50
2017-12-15T05:19:29.154Z,0.52
2017-12-15T05:21:56.653Z,0.50
2017-12-15T05:24:24.964Z,0.65
2017-12-15T05:26:52.984Z,0.52
2017-12-15T05:29:20.540Z,0.60
2017-12-15T05:31:48.042Z,0.60
2017-12-15T05:34:15.753Z,0.80
2017-12-15T05:36:43.259Z,0.60
2017-12-15T05:39:10.766Z,0.70
2017-12-15T05:41:38.548Z,0.70
2017-12-15T05:44:06.046Z,0.50
2017-12-15T05:46:33.560Z,1.10
2017-12-15T05:49:01.542Z,0.45
2017-12-15T05:51:29.088Z,0.68
2017-12-15T05:53:56.590Z,2.20
2017-12-15T05:56:24.223Z,1.25
2017-12-15T05:58:51.765Z,0.75
2017-12-15T06:01:19.265Z,0.80
2017-12-15T06:03:46.985Z,0.80
2017-12-15T06:06:14.490Z,0.70
2017-12-15T06:08:42.081Z,0.70
2017-12-15T06:11:09.841Z,1.02
2017-12-15T06:13:37.346Z,0.57
2017-12-15T06:16:04.902Z,0.88
2017-12-15T06:18:32.739Z,1.40
2017-12-15T06:21:00.243Z,1.08
2017-12-15T06:23:27.750Z,1.00
2017-12-15T06:25:55.326Z,1.10
2017-12-15T06:28:22.834Z,1.10
2017-12-15T06:30:50.374Z,1.37
2017-12-15T06:33:18.309Z,0.70
2017-12-15T06:35:45.869Z,1.15
2017-12-15T06:38:13.455Z,0.75
2017-12-15T06:40:41.211Z,1.12
2017-12-15T06:43:08.718Z,0.90
2017-12-15T06:45:36.719Z,1.20
2017-12-15T06:48:04.254Z,0.75
2017-12-15T06:50:31.757Z,0.73
2017-12-15T06:52:59.258Z,0.40
2017-12-15T06:55:27.015Z,0.70
2017-12-15T06:57:54.494Z,0.90
2017-12-15T07:00:21.999Z,0.82
2017-12-15T07:02:49.736Z,0.93
2017-12-15T07:05:17.250Z,0.80
2017-12-15T07:07:44.761Z,0.93
2017-12-15T07:10:12.311Z,1.70
2017-12-15T07:12:40.791Z,0.80
2017-12-15T07:15:09.273Z,0.80
2017-12-15T07:17:37.035Z,1.17
2017-12-15T07:20:04.533Z,0.70
2017-12-15T07:22:32.051Z,0.77
2017-12-15T07:24:59.789Z,0.65
2017-12-15T07:27:27.295Z,0.88
2017-12-15T07:29:54.812Z,1.05
2017-12-15T07:32:22.355Z,1.08
2017-12-15T07:34:49.872Z,0.62
2017-12-15T07:37:17.377Z,0.90
2017-12-15T07:39:45.272Z,1.12
2017-12-15T07:42:12.822Z,1.27
2017-12-15T07:44:40.362Z,1.40
2017-12-15T07:47:07.953Z,1.10
2017-12-15T07:49:35.514Z,1.00
2017-12-15T07:52:03.018Z,0.90
2017-12-15T07:54:30.627Z,0.65
2017-12-15T07:56:58.184Z,1.00
2017-12-15T07:59:25.745Z,1.23
2017-12-15T08:01:53.516Z,0.70
2017-12-15T08:04:21.022Z,0.60
2017-12-15T08:06:48.530Z,0.60
2017-12-15T08:09:16.597Z,0.50
2017-12-15T08:11:44.361Z,1.23
2017-12-15T08:14:11.917Z,0.70
2017-12-15T08:16:40.091Z,0.85
2017-12-15T08:19:07.878Z,0.70
2017-12-15T08:21:35.515Z,1.20
2017-12-15T08:24:03.506Z,1.90
2017-12-15T08:26:31.146Z,0.70
2017-12-15T08:28:58.798Z,0.77
2017-12-15T08:31:26.940Z,0.62
2017-12-15T08:33:54.494Z,0.55
2017-12-15T08:36:22.001Z,1.08
2017-12-15T08:38:50.339Z,0.75
2017-12-15T08:41:18.753Z,0.73
2017-12-15T08:43:46.304Z,0.82
2017-12-15T08:48:47.269Z,0.60
2017-12-15T08:51:14.886Z,0.80
2017-12-15T08:53:42.418Z,1.05
2017-12-15T08:56:10.815Z,0.95
2017-12-15T08:58:41.090Z,1.30
2017-12-15T09:01:08.595Z,0.60
2017-12-15T09:03:36.186Z,0.90
2017-12-15T09:06:03.976Z,0.60
2017-12-15T09:08:33.277Z,1.00
2017-12-15T09:11:02.386Z,1.02
2017-12-15T09:13:30.027Z,1.20
2017-12-15T09:15:58.302Z,1.00
2017-12-15T09:18:25.813Z,0.90
2017-12-15T09:20:53.364Z,1.00
2017-12-15T09:23:21.904Z,1.20
2017-12-15T09:25:51.355Z,1.00
2017-12-15T09:28:20.120Z,1.65
2017-12-15T09:30:48.442Z,0.73
2017-12-15T09:33:17.793Z,1.27
2017-12-15T09:35:47.197Z,1.42
2017-12-15T09:38:16.039Z,1.20
2017-12-15T09:40:43.725Z,0.55
2017-12-15T09:43:11.506Z,0.93
2017-12-15T09:45:39.877Z,1.00
2017-12-15T09:48:07.504Z,1.27
2017-12-15T09:50:35.105Z,1.15
2017-12-15T09:53:02.635Z,1.27
2017-12-15T09:55:30.142Z,0.82
2017-12-15T09:57:58.073Z,0.95
2017-12-15T10:00:25.586Z,1.00
2017-12-15T10:02:53.102Z,1.25
2017-12-15T10:05:20.853Z,1.20
2017-12-15T10:07:48.359Z,0.95
2017-12-15T10:10:15.870Z,1.00
2017-12-15T10:12:43.827Z,1.40
2017-12-15T10:15:11.335Z,1.25
2017-12-15T10:17:38.856Z,1.23
2017-12-15T10:20:06.620Z,0.65
2017-12-15T10:22:34.122Z,1.00
2017-12-15T10:25:01.633Z,0.80
2017-12-15T10:27:29.179Z,1.08
2017-12-15T10:29:56.681Z,1.33
2017-12-15T10:32:24.209Z,0.70
2017-12-15T10:34:51.846Z,1.00
2017-12-15T10:37:19.350Z,1.10
2017-12-15T10:39:46.884Z,1.60
2017-12-15T10:42:14.670Z,1.17
2017-12-15T10:44:42.208Z,0.82
2017-12-15T10:47:09.767Z,1.23
2017-12-15T10:49:37.506Z,1.00
2017-12-15T10:52:05.028Z,1.10
2017-12-15T10:54:32.534Z,0.90
2017-12-15T10:57:00.091Z,1.15
2017-12-15T10:59:27.604Z,2.00
2017-12-15T11:01:55.160Z,1.17
2017-12-15T11:04:22.732Z,1.17
2017-12-15T11:06:50.242Z,1.10
2017-12-15T11:09:17.747Z,1.20
2017-12-15T11:11:45.300Z,1.10
2017-12-15T11:14:12.917Z,1.20
2017-12-15T11:16:40.592Z,0.98
2017-12-15T11:19:08.137Z,2.47
2017-12-15T11:21:35.642Z,3.05
2017-12-15T11:24:03.152Z,0.80
2017-12-15T11:26:30.839Z,0.55
2017-12-15T11:28:58.347Z,0.73
2017-12-15T11:31:25.866Z,0.80
2017-12-15T11:33:53.439Z,0.82
2017-12-15T11:36:20.951Z,0.80
2017-12-15T11:38:48.523Z,0.60
2017-12-15T11:41:16.271Z,0.50
2017-12-15T11:43:43.774Z,0.52
2017-12-15T11:46:11.390Z,0.60
2017-12-15T11:48:39.153Z,0.47
2017-12-15T11:51:06.722Z,0.98
2017-12-15T11:53:34.272Z,0.90
2017-12-15T11:56:02.017Z,0.90
2017-12-15T11:58:29.526Z,0.68
2017-12-15T12:00:57.051Z,0.43
2017-12-15T12:03:24.917Z,0.40
2017-12-15T12:05:52.477Z,0.40
2017-12-15T12:08:19.983Z,0.62
2017-12-15T12:10:47.696Z,0.60
2017-12-15T12:13:15.201Z,0.30
2017-12-15T12:15:42.711Z,0.90
2017-12-15T12:18:10.258Z,0.40
2017-12-15T12:20:37.784Z,0.40
2017-12-15T12:23:05.302Z,0.50
2017-12-15T12:25:33.051Z,0.88
2017-12-15T12:28:00.563Z,0.50
2017-12-15T12:30:28.097Z,0.62
2017-12-15T12:32:55.654Z,0.77
2017-12-15T12:35:23.178Z,0.30
2017-12-15T12:37:50.687Z,0.32
2017-12-15T12:40:18.239Z,0.40
2017-12-15T12:42:45.742Z,0.60
2017-12-15T12:45:13.599Z,0.50
2017-12-15T12:47:41.193Z,0.50
2017-12-15T12:50:08.847Z,0.45
2017-12-15T12:52:36.409Z,0.60
2017-12-15T12:55:03.958Z,0.40
2017-12-15T12:57:31.465Z,0.30
2017-12-15T12:59:59.378Z,0.60
2017-12-15T13:02:27.978Z,0.40
2017-12-15T13:04:55.531Z,0.55
2017-12-15T13:07:23.043Z,0.43
2017-12-15T13:09:50.789Z,0.70
2017-12-15T13:12:18.310Z,0.62
2017-12-15T13:14:45.884Z,0.50
2017-12-15T13:17:13.473Z,0.60
2017-12-15T13:19:41.401Z,0.60
2017-12-15T13:22:08.958Z,0.77
2017-12-15T13:24:36.899Z,2.50
2017-12-15T13:27:05.101Z,1.40
2017-12-15T13:29:32.764Z,1.20
2017-12-15T13:32:00.517Z,1.75
2017-12-15T13:34:28.064Z,1.92
2017-12-15T13:36:55.849Z,1.05
2017-12-15T13:39:24.125Z,1.73
2017-12-15T13:41:51.684Z,0.98
2017-12-15T13:44:19.245Z,0.80
2017-12-15T13:46:47.211Z,0.90
2017-12-15T13:49:14.827Z,0.47
2017-12-15T13:51:42.364Z,0.98
2017-12-15T13:54:10.079Z,0.80
2017-12-15T13:56:37.948Z,0.55
2017-12-15T13:59:05.623Z,0.60
2017-12-15T14:01:33.169Z,0.50
2017-12-15T14:04:00.842Z,0.60
2017-12-15T14:06:28.484Z,0.60
2017-12-15T14:08:56.242Z,0.70
2017-12-15T14:11:23.975Z,0.70
2017-12-15T14:13:51.591Z,0.80
2017-12-15T14:16:20.072Z,1.15
2017-12-15T14:18:47.606Z,0.90
2017-12-15T14:21:15.117Z,1.17
2017-12-15T14:23:42.954Z,0.93
2017-12-15T14:26:10.479Z,0.80
2017-12-15T14:28:38.293Z,0.70
2017-12-15T14:31:06.138Z,0.73
2017-12-15T14:33:33.651Z,0.70
2017-12-15T14:36:01.158Z,0.60
2017-12-15T14:38:28.938Z,0.88
2017-12-15T14:40:57.198Z,0.70
2017-12-15T14:43:24.759Z,0.50
2017-12-15T14:45:52.726Z,0.95
2017-12-15T14:48:20.302Z,0.70
2017-12-15T14:50:47.844Z,1.02
2017-12-15T14:53:15.582Z,0.60
2017-12-15T14:55:43.098Z,0.85
2017-12-15T14:58:10.623Z,0.98
2017-12-15T15:00:38.228Z,0.70
2017-12-15T15:03:05.787Z,0.90
2017-12-15T15:05:33.402Z,1.10
2017-12-15T15:08:01.034Z,1.42
2017-12-15T15:10:28.594Z,1.00
2017-12-15T15:12:56.389Z,1.02
2017-12-15T15:15:24.156Z,1.58
2017-12-15T15:17:51.925Z,1.10
2017-12-15T15:20:19.782Z,1.15
2017-12-15T15:22:47.521Z,1.10
2017-12-15T15:25:15.206Z,1.27
2017-12-15T15:27:42.773Z,1.17
2017-12-15T15:30:10.339Z,1.05
2017-12-15T15:32:38.294Z,1.27
2017-12-15T15:35:05.944Z,1.40
2017-12-15T15:37:34.162Z,1.30
2017-12-15T15:40:01.756Z,1.35
2017-12-15T15:42:29.282Z,2.05
2017-12-15T15:44:57.321Z,1.62
2017-12-15T15:47:24.847Z,1.65
2017-12-15T15:49:52.354Z,3.67
2017-12-15T15:52:19.995Z,2.55
2017-12-15T15:54:47.553Z,2.37
2017-12-15T15:57:15.065Z,2.40
2017-12-15T15:59:42.797Z,4.03
2017-12-15T16:02:10.744Z,4.90
2017-12-15T16:04:38.273Z,3.45
2017-12-15T16:07:05.861Z,2.40
2017-12-15T16:09:33.450Z,1.50
2017-12-15T16:12:00.979Z,2.28
2017-12-15T16:14:28.747Z,3.40
2017-12-15T16:16:56.260Z,3.35
2017-12-15T16:19:24.169Z,1.17
2017-12-15T16:21:51.928Z,1.17
2017-12-15T16:24:19.493Z,1.45
2017-12-15T16:26:47.312Z,1.27
2017-12-15T16:29:15.224Z,1.90
2017-12-15T16:31:42.763Z,1.20
2017-12-15T16:34:10.343Z,2.25
2017-12-15T16:36:38.107Z,1.67
2017-12-15T16:39:05.886Z,3.40
2017-12-15T16:41:33.642Z,1.67
2017-12-15T16:44:01.500Z,1.75
2017-12-15T16:46:29.061Z,1.75
2017-12-15T16:48:56.598Z,1.65
2017-12-15T16:51:24.689Z,2.60
2017-12-15T16:53:52.254Z,1.90
2017-12-15T16:56:20.012Z,2.17
2017-12-15T16:58:47.675Z,2.58
2017-12-15T17:01:15.219Z,1.92
2017-12-15T17:03:42.727Z,1.95
2017-12-15T17:06:10.556Z,1.92
2017-12-15T17:08:38.115Z,2.00
2017-12-15T17:11:05.630Z,2.65
2017-12-15T17:13:33.542Z,2.47
2017-12-15T17:16:01.050Z,2.00
2017-12-15T17:18:28.565Z,2.67
2017-12-15T17:20:56.427Z,2.08
2017-12-15T17:23:24.012Z,2.55
2017-12-15T17:25:51.543Z,3.80
2017-12-15T17:28:19.299Z,2.53
2017-12-15T17:30:46.883Z,2.50
2017-12-15T17:33:14.578Z,2.80
2017-12-15T17:35:42.177Z,2.90
2017-12-15T17:38:09.671Z,2.70
2017-12-15T17:40:37.188Z,2.35
2017-12-15T17:43:04.995Z,3.00
2017-12-15T17:45:32.577Z,2.35
2017-12-15T17:48:00.127Z,2.40
2017-12-15T17:50:27.949Z,2.30
2017-12-15T17:52:55.512Z,3.50
2017-12-15T17:55:23.010Z,3.70
2017-12-15T17:57:51.446Z,2.60
2017-12-15T18:00:19.006Z,2.42
2017-12-15T18:02:46.568Z,2.47
2017-12-15T18:05:14.235Z,2.60
2017-12-15T18:07:41.733Z,2.65
2017-12-15T18:10:09.344Z,1.98
2017-12-15T18:12:37.006Z,2.87
2017-12-15T18:15:04.564Z,2.50
2017-12-15T18:17:32.124Z,2.62
2017-12-15T18:19:59.955Z,2.62
2017-12-15T18:22:27.462Z,3.15
2017-12-15T18:24:54.994Z,3.47
2017-12-15T18:27:22.875Z,3.00
2017-12-15T18:29:50.392Z,3.70
2017-12-15T18:32:18.084Z,3.40
2017-12-15T18:34:46.368Z,3.25
2017-12-15T18:37:14.031Z,3.15
2017-12-15T18:39:41.608Z,4.18
2017-12-15T18:42:09.459Z,3.10
2017-12-15T18:44:38.018Z,2.95
2017-12-15T18:47:05.802Z,3.55
2017-12-15T18:49:33.593Z,2.70
2017-12-15T18:52:01.331Z,3.80
2017-12-15T18:54:28.992Z,3.53
2017-12-15T18:56:56.676Z,3.22
2017-12-15T18:59:24.212Z,3.90
2017-12-15T19:01:51.977Z,3.83
2017-12-15T19:04:19.876Z,3.85
2017-12-15T19:06:47.611Z,4.40
2017-12-15T19:09:15.267Z,3.60
2017-12-15T19:11:42.827Z,3.83
2017-12-15T19:14:10.513Z,3.03
2017-12-15T19:16:38.663Z,3.97
2017-12-15T19:19:06.848Z,4.35
2017-12-15T19:21:35.439Z,4.30
2017-12-15T19:24:03.490Z,3.05
2017-12-15T19:26:31.799Z,4.07
2017-12-15T19:28:59.530Z,3.25
2017-12-15T19:31:27.196Z,3.35
2017-12-15T19:33:55.002Z,3.65
2017-12-15T19:36:22.718Z,3.30
2017-12-15T19:38:54.192Z,3.30
2017-12-15T19:41:22.035Z,3.92
2017-12-15T19:43:50.416Z,3.72
2017-12-15T19:46:19.118Z,4.43
2017-12-15T19:48:46.847Z,5.30
2017-12-15T19:51:14.733Z,6.12
2017-12-15T19:53:42.610Z,4.78
2017-12-15T19:56:10.422Z,4.18
2017-12-15T19:58:38.230Z,3.97
2017-12-15T20:01:06.091Z,3.70
2017-12-15T20:03:33.857Z,4.30
2017-12-15T20:06:02.463Z,4.43
2017-12-15T20:08:30.479Z,5.25
2017-12-15T20:10:58.280Z,5.68
2017-12-15T20:13:26.044Z,4.78
2017-12-15T20:15:54.007Z,3.70
2017-12-15T20:18:21.874Z,4.70
2017-12-15T20:20:49.687Z,3.35
2017-12-15T20:23:17.918Z,4.03
2017-12-15T20:25:46.291Z,4.18
2017-12-15T20:28:14.056Z,4.65
2017-12-15T20:30:42.144Z,3.42
2017-12-15T20:33:09.993Z,4.37
2017-12-15T20:35:37.869Z,4.78
2017-12-15T20:38:05.889Z,4.22
2017-12-15T20:40:33.796Z,4.60
2017-12-15T20:43:01.501Z,4.43
2017-12-15T20:45:29.451Z,4.90
2017-12-15T20:47:57.195Z,5.43
2017-12-15T20:50:25.178Z,4.82
2017-12-15T20:52:53.374Z,4.03
2017-12-15T20:55:21.098Z,4.43
2017-12-15T20:57:48.861Z,4.60
2017-12-15T21:00:16.848Z,4.68
2017-12-15T21:02:45.208Z,5.25
2017-12-15T21:05:13.190Z,4.60
2017-12-15T21:07:41.301Z,4.68
2017-12-15T21:10:09.322Z,3.58
2017-12-15T21:12:36.988Z,3.70
2017-12-15T21:15:05.162Z,4.65
2017-12-15T21:17:32.918Z,4.10
2017-12-15T21:20:00.494Z,4.65
2017-12-15T21:22:28.451Z,4.47
2017-12-15T21:24:56.007Z,4.43
2017-12-15T21:27:23.855Z,3.90
2017-12-15T21:29:52.043Z,4.53
2017-12-15T21:32:19.754Z,4.95
2017-12-15T21:34:47.476Z,4.47
2017-12-15T21:37:15.150Z,4.82
2017-12-15T21:39:42.691Z,5.47
2017-12-15T21:42:10.327Z,5.45
2017-12-15T21:44:38.013Z,5.50
2017-12-15T21:47:05.620Z,6.10
2017-12-15T21:49:33.336Z,5.53
2017-12-15T21:52:01.563Z,5.72
2017-12-15T21:54:29.534Z,5.25
2017-12-15T21:56:57.337Z,5.40
2017-12-15T21:59:25.212Z,7.20
2017-12-15T22:01:53.181Z,5.55
2017-12-15T22:04:20.763Z,6.28
2017-12-15T22:06:48.523Z,4.62
2017-12-15T22:09:16.063Z,4.28
2017-12-15T22:11:44.646Z,6.18
2017-12-15T22:14:12.718Z,6.20
2017-12-15T22:16:40.277Z,5.60
2017-12-15T22:19:07.836Z,5.20
2017-12-15T22:21:35.804Z,5.72
2017-12-15T22:24:03.466Z,7.53
2017-12-15T22:26:31.023Z,8.10
2017-12-15T22:28:59.198Z,5.40
2017-12-15T22:31:26.758Z,6.12
2017-12-15T22:33:54.334Z,4.70
2017-12-15T22:36:21.986Z,5.15
2017-12-15T22:38:49.537Z,4.57
2017-12-15T22:41:17.097Z,4.80
2017-12-15T22:43:44.785Z,5.18
2017-12-15T22:46:12.335Z,4.30
2017-12-15T22:48:39.876Z,4.20
2017-12-15T22:51:07.644Z,5.30
2017-12-15T22:53:35.694Z,4.50
2017-12-15T22:56:03.874Z,4.35
2017-12-15T22:58:31.754Z,5.55
2017-12-15T23:01:00.927Z,5.78
2017-12-15T23:03:29.654Z,5.07
2017-12-15T23:05:57.307Z,6.15
2017-12-15T23:08:27.535Z,5.45
2017-12-15T23:10:55.074Z,5.90
2017-12-15T23:13:22.737Z,5.20
2017-12-15T23:15:50.296Z,6.70
2017-12-15T23:18:17.857Z,6.32
2017-12-15T23:20:46.541Z,5.25
2017-12-15T23:23:14.963Z,6.07
2017-12-15T23:25:44.026Z,6.78
2017-12-15T23:28:11.780Z,5.55
2017-12-15T23:30:39.339Z,4.95
2017-12-15T23:33:06.858Z,5.50
2017-12-15T23:35:34.405Z,5.68
2017-12-15T23:38:02.412Z,5.12
2017-12-15T23:40:29.922Z,4.32
2017-12-15T23:42:57.545Z,3.97
2017-12-15T23:45:25.046Z,4.60
2017-12-15T23:47:52.588Z,5.18
2017-12-15T23:50:20.527Z,5.32
2017-12-15T23:52:48.043Z,3.87
2017-12-15T23:55:27.729Z,4.45
2017-12-15T23:57:55.238Z,4.65
